Time;durP1;ratioP1;P1;durP2;ratioP2;P2;SDS_P1;SDS_P2;PMS_P1;PMS_P2;Temp;Humidity;BMP_temperature;BMP_pressure;BME280_temperature;BME280_humidity;BME280_pressure;Samples;Min_cycle;Max_cycle;Signal;HPM_P1;HPM_P2
2022/03/27 00:00:25;;;;;;;;;51.75;43.50;;;;;14.44;39.75;102268.94;4996177;28;45544;-72
2022/03/27 00:02:51;;;;;;;;;53.50;40.50;;;;;14.35;39.99;102268.81;4998304;28;46440;-70
2022/03/27 00:05:16;;;;;;;;;39.33;33.00;;;;;14.17;39.96;102237.31;4998502;28;45542;-70
2022/03/27 00:07:42;;;;;;;;;51.33;40.00;;;;;14.03;40.13;102210.91;4999922;28;45572;-69
2022/03/27 00:10:08;;;;;;;;;46.00;36.50;;;;;14.27;40.23;102267.66;4984169;28;45607;-71
2022/03/27 00:12:33;;;;;;;;;43.50;32.75;;;;;14.24;40.48;102273.28;4981922;28;45591;-70
2022/03/27 00:15:03;;;;;;;;;50.25;40.00;;;;;14.12;40.24;102247.56;4999451;28;45485;-73
2022/03/27 00:17:33;;;;;;;;;47.50;38.25;;;;;14.25;40.26;102260.75;4999681;28;45318;-71
2022/03/27 00:20:05;;;;;;;;;54.25;42.00;;;;;14.07;39.74;102225.72;4982080;28;45349;-70
2022/03/27 00:22:30;;;;;;;;;46.75;36.25;;;;;14.32;39.47;102269.94;4999408;28;45288;-71
2022/03/27 00:24:57;;;;;;;;;54.00;38.25;;;;;13.75;39.96;102176.78;5014829;28;45594;-70
2022/03/27 00:27:23;;;;;;;;;47.00;37.75;;;;;14.28;40.25;102277.38;5000118;28;45273;-70
2022/03/27 00:29:49;;;;;;;;;42.75;35.75;;;;;13.87;39.85;102215.88;4982739;28;45248;-71
2022/03/27 00:32:15;;;;;;;;;40.75;33.25;;;;;13.27;40.45;102129.19;4999590;28;46662;-71
2022/03/27 00:34:40;;;;;;;;;46.67;38.00;;;;;14.14;40.24;102261.66;4981699;28;45421;-70
2022/03/27 00:37:06;;;;;;;;;42.50;36.50;;;;;14.01;40.74;102252.97;4999883;28;45299;-71
2022/03/27 00:39:34;;;;;;;;;45.50;35.50;;;;;14.18;40.44;102260.41;4987480;28;45313;-71
2022/03/27 00:42:00;;;;;;;;;55.50;42.00;;;;;14.13;40.29;102267.97;4978300;28;47258;-71
2022/03/27 00:44:26;;;;;;;;;42.67;32.67;;;;;13.56;41.00;102178.34;4979593;28;45396;-70
2022/03/27 00:46:51;;;;;;;;;48.75;37.50;;;;;14.05;40.87;102257.09;4979672;28;45317;-71
2022/03/27 00:49:16;;;;;;;;;44.50;36.75;;;;;14.08;40.64;102254.16;4962219;28;45263;-71
2022/03/27 00:51:42;;;;;;;;;49.25;37.00;;;;;14.09;41.08;102255.84;4962052;28;47135;-69
2022/03/27 00:54:08;;;;;;;;;50.00;39.50;;;;;14.03;40.79;102247.50;4961960;28;45446;-71
2022/03/27 00:56:33;;;;;;;;;41.75;34.75;;;;;13.66;40.80;102206.00;4978387;28;45381;-70
2022/03/27 00:58:59;;;;;;;;;48.25;38.00;;;;;13.95;41.34;102258.84;4979691;28;45418;-70
2022/03/27 01:01:36;;;;;;;;;46.00;36.25;;;;;13.91;41.60;102258.25;4979393;28;45852;-70
2022/03/27 01:04:05;;;;;;;;;48.50;36.00;;;;;13.96;41.46;102255.19;4978502;28;46544;-70
2022/03/27 01:06:33;;;;;;;;;47.25;37.75;;;;;13.83;41.40;102239.34;4979389;28;45371;-69
2022/03/27 01:11:44;;;;;;;;;50.75;40.00;;;;;13.81;41.70;102235.91;4978603;28;45452;-71
2022/03/27 01:14:10;;;;;;;;;45.75;37.75;;;;;13.85;41.96;102249.91;4977104;28;45295;-69
2022/03/27 01:16:42;;;;;;;;;49.25;39.75;;;;;13.82;42.37;102260.84;4979311;28;45362;-71
2022/03/27 01:19:11;;;;;;;;;48.50;36.00;;;;;13.81;41.88;102257.31;4979511;28;45455;-70
2022/03/27 01:21:40;;;;;;;;;45.25;34.75;;;;;13.74;42.66;102257.97;4961395;28;46585;-70
2022/03/27 01:24:06;;;;;;;;;50.00;39.75;;;;;12.68;42.54;102084.19;4961137;28;45242;-71
2022/03/27 01:26:33;;;;;;;;;53.00;38.50;;;;;13.62;42.45;102231.28;4977606;28;45294;-71
2022/03/27 01:28:59;;;;;;;;;52.50;42.00;;;;;13.56;42.93;102246.97;4978928;28;45286;-71
2022/03/27 01:31:24;;;;;;;;;46.75;37.50;;;;;13.53;42.89;102237.38;4979879;28;45504;-70
2022/03/27 01:33:50;;;;;;;;;52.75;41.00;;;;;13.60;42.55;102243.06;4995307;28;45346;-69
2022/03/27 01:36:22;;;;;;;;;49.25;39.50;;;;;13.48;43.49;102228.06;4980348;28;45289;-72
2022/03/27 01:38:49;;;;;;;;;43.75;38.00;;;;;13.51;42.67;102228.66;4996148;28;45394;-71
2022/03/27 01:41:16;;;;;;;;;48.75;38.25;;;;;13.50;43.02;102215.41;4997409;28;47641;-71
2022/03/27 01:43:41;;;;;;;;;47.75;38.75;;;;;13.62;43.08;102244.66;4980484;28;45567;-70
2022/03/27 01:46:07;;;;;;;;;50.50;41.00;;;;;13.60;43.12;102227.03;4980576;28;45329;-70
2022/03/27 01:48:33;;;;;;;;;52.00;38.50;;;;;13.58;43.16;102223.63;4980528;28;45615;-70
2022/03/27 01:51:00;;;;;;;;;48.50;38.25;;;;;13.56;43.29;102225.59;4980275;28;47887;-73
2022/03/27 01:53:25;;;;;;;;;49.25;40.50;;;;;13.51;43.41;102217.97;4998272;28;45491;-71
2022/03/27 01:55:51;;;;;;;;;55.25;42.75;;;;;13.55;43.81;102222.06;4998597;28;45538;-70
2022/03/27 01:58:16;;;;;;;;;44.75;36.50;;;;;13.48;43.32;102215.53;4980818;28;45248;-71
2022/03/27 02:00:43;;;;;;;;;47.50;35.50;;;;;13.44;44.09;102224.78;4997764;28;45442;-72
2022/03/27 02:03:09;;;;;;;;;48.00;36.50;;;;;13.38;43.79;102212.78;4980362;28;45267;-70
2022/03/27 02:05:34;;;;;;;;;50.25;40.25;;;;;13.38;43.76;102223.44;4998294;28;45488;-71
2022/03/27 02:08:00;;;;;;;;;55.75;41.75;;;;;13.39;43.68;102221.63;4998158;28;45362;-70
2022/03/27 02:10:25;;;;;;;;;48.75;39.00;;;;;13.24;44.35;102197.06;4980163;28;47925;-71
2022/03/27 02:12:51;;;;;;;;;52.50;42.00;;;;;13.36;44.21;102214.72;4997833;28;45484;-70
2022/03/27 02:15:16;;;;;;;;;50.25;38.75;;;;;12.97;43.71;102144.03;4998088;28;45526;-71
2022/03/27 02:17:42;;;;;;;;;47.25;38.50;;;;;13.34;43.98;102219.34;4999190;28;45547;-72
2022/03/27 02:20:08;;;;;;;;;43.75;36.00;;;;;13.17;44.18;102192.28;4980773;28;47684;-72
2022/03/27 02:22:34;;;;;;;;;53.25;42.25;;;;;13.29;44.31;102212.69;4979882;28;45274;-72
2022/03/27 02:24:59;;;;;;;;;46.75;36.25;;;;;13.23;44.97;102218.53;4979741;28;45454;-70
2022/03/27 02:27:25;;;;;;;;;46.25;36.25;;;;;13.17;44.70;102217.16;4998130;28;45367;-71
2022/03/27 02:29:50;;;;;;;;;30.50;22.00;;;;;13.15;44.88;102211.09;4996277;28;45739;-72
2022/03/27 02:32:16;;;;;;;;;46.50;38.75;;;;;13.20;45.36;102226.78;4997588;28;45301;-69
2022/03/27 02:34:41;;;;;;;;;49.75;39.00;;;;;13.08;45.27;102215.25;4997564;28;45474;-69
2022/03/27 02:37:06;;;;;;;;;46.75;37.75;;;;;12.70;45.17;102167.63;4997884;28;45234;-70
2022/03/27 02:39:33;;;;;;;;;44.50;36.50;;;;;13.17;45.05;102229.66;4997311;28;45461;-70
2022/03/27 02:41:58;;;;;;;;;45.00;36.00;;;;;13.08;45.42;102229.47;4979566;28;45480;-71
2022/03/27 02:44:24;;;;;;;;;45.50;38.75;;;;;13.13;45.26;102230.91;4997538;28;45381;-71
2022/03/27 02:46:50;;;;;;;;;50.50;40.75;;;;;12.88;45.56;102192.00;4997552;28;45542;-69
2022/03/27 02:49:16;;;;;;;;;46.25;36.25;;;;;13.11;45.29;102231.03;4979984;28;47611;-71
2022/03/27 02:51:44;;;;;;;;;51.50;41.75;;;;;12.89;45.80;102196.34;4997521;28;45312;-69
2022/03/27 02:54:10;;;;;;;;;46.25;36.25;;;;;13.07;45.94;102221.56;4980026;28;45638;-70
2022/03/27 02:56:35;;;;;;;;;50.75;38.75;;;;;13.03;45.68;102231.66;4998013;28;45293;-71
2022/03/27 02:59:01;;;;;;;;;44.50;35.00;;;;;12.90;46.08;102217.59;4997629;28;46450;-70
2022/03/27 03:01:26;;;;;;;;;47.00;39.00;;;;;12.63;46.11;102175.28;4996840;28;45598;-69
2022/03/27 03:03:52;;;;;;;;;49.00;38.75;;;;;12.91;45.91;102224.63;4996098;28;45242;-68
2022/03/27 03:06:20;;;;;;;;;43.33;36.00;;;;;12.98;46.10;102230.31;4997505;28;45299;-73
2022/03/27 03:08:46;;;;;;;;;50.00;39.75;;;;;12.76;46.13;102205.34;4996913;28;45667;-71
2022/03/27 03:11:13;;;;;;;;;47.00;35.75;;;;;12.85;46.30;102227.78;4996968;28;45445;-71
2022/03/27 03:13:39;;;;;;;;;51.25;41.50;;;;;12.85;46.15;102230.47;4995762;28;45337;-71
2022/03/27 03:16:07;;;;;;;;;48.00;39.00;;;;;12.91;46.48;102235.31;4996894;28;45502;-72
2022/03/27 03:18:36;;;;;;;;;39.25;34.00;;;;;12.73;46.36;102215.41;4996681;28;45389;-70
2022/03/27 03:21:02;;;;;;;;;45.75;38.00;;;;;12.59;46.91;102202.31;4997124;28;45421;-70
2022/03/27 03:23:28;;;;;;;;;41.50;34.50;;;;;12.74;46.59;102233.13;4996968;28;45517;-71
2022/03/27 03:25:54;;;;;;;;;42.75;33.75;;;;;12.73;46.80;102212.75;4979514;28;45276;-71
2022/03/27 03:28:20;;;;;;;;;49.25;37.00;;;;;12.70;46.52;102216.50;4997376;28;45696;-69
2022/03/27 03:30:46;;;;;;;;;47.50;36.00;;;;;12.69;46.64;102212.16;4978851;28;45382;-71
2022/03/27 03:33:12;;;;;;;;;49.50;40.00;;;;;12.43;46.79;102178.69;4968279;28;45570;-70
2022/03/27 03:35:39;;;;;;;;;38.25;32.25;;;;;12.69;46.88;102237.97;4978302;28;45397;-71
2022/03/27 03:38:05;;;;;;;;;41.50;33.00;;;;;12.62;47.45;102239.44;4980474;28;46635;-70
2022/03/27 03:40:31;;;;;;;;;44.50;36.00;;;;;12.65;47.42;102233.88;4962874;28;45676;-71
2022/03/27 03:42:56;;;;;;;;;45.50;38.75;;;;;12.71;46.90;102233.38;4963035;28;45322;-72
2022/03/27 03:45:21;;;;;;;;;45.50;36.50;;;;;12.64;46.67;102217.00;4963282;28;45529;-71
2022/03/27 03:47:47;;;;;;;;;47.50;39.25;;;;;12.71;47.24;102234.22;4979896;28;45449;-70
2022/03/27 03:50:13;;;;;;;;;46.00;36.00;;;;;12.60;47.30;102225.34;4980353;28;45484;-71
2022/03/27 03:52:39;;;;;;;;;44.75;36.75;;;;;12.60;47.91;102230.69;4979393;28;45298;-72
2022/03/27 03:55:05;;;;;;;;;48.25;36.50;;;;;12.58;47.48;102236.16;4980983;28;45247;-70
2022/03/27 03:57:31;;;;;;;;;42.75;36.25;;;;;12.55;47.41;102232.88;4980766;28;45359;-70
2022/03/27 03:59:56;;;;;;;;;46.50;38.00;;;;;12.46;47.89;102234.47;4982415;28;45346;-72
2022/03/27 04:02:21;;;;;;;;;46.00;35.75;;;;;12.09;47.61;102164.47;5000090;28;45528;-69
2022/03/27 04:04:47;;;;;;;;;44.75;36.50;;;;;12.31;48.25;102212.50;5000201;28;45194;-69
2022/03/27 04:07:12;;;;;;;;;36.75;32.25;;;;;12.37;48.24;102220.00;5001104;28;46699;-69
2022/03/27 04:09:38;;;;;;;;;46.00;35.50;;;;;11.87;48.07;102122.66;5000128;28;45513;-70
2022/03/27 04:12:03;;;;;;;;;37.50;32.25;;;;;12.39;48.09;102207.41;4982304;28;45375;-69
2022/03/27 04:14:29;;;;;;;;;44.75;35.25;;;;;12.55;47.95;102224.88;4998825;28;45325;-70
2022/03/27 04:16:56;;;;;;;;;47.00;38.50;;;;;12.49;47.67;102232.41;4981957;28;47722;-69
2022/03/27 04:19:22;;;;;;;;;45.75;36.25;;;;;12.55;48.03;102233.72;4999596;28;45591;-72
2022/03/27 04:21:47;;;;;;;;;49.75;39.00;;;;;12.55;47.88;102241.72;4999778;28;45443;-71
2022/03/27 04:24:16;;;;;;;;;46.00;38.50;;;;;12.37;47.90;102198.66;4999923;28;45495;-71
2022/03/27 04:26:41;;;;;;;;;44.75;36.00;;;;;12.61;47.73;102243.91;4981923;28;48244;-71
2022/03/27 04:29:07;;;;;;;;;48.00;37.75;;;;;12.59;46.98;102232.50;4999471;28;45286;-70
2022/03/27 04:31:33;;;;;;;;;47.00;37.75;;;;;12.61;47.55;102238.56;4999583;28;45280;-69
2022/03/27 04:33:58;;;;;;;;;41.00;35.25;;;;;12.55;47.38;102239.06;4981943;28;45502;-70
2022/03/27 04:36:24;;;;;;;;;41.25;35.50;;;;;12.57;47.70;102241.59;4999467;28;45712;-70
2022/03/27 04:38:50;;;;;;;;;42.00;35.50;;;;;12.31;47.55;102188.50;4999254;28;45307;-69
2022/03/27 04:41:15;;;;;;;;;37.75;32.25;;;;;12.47;47.74;102226.34;4981462;28;45339;-72
2022/03/27 04:43:41;;;;;;;;;42.00;34.25;;;;;12.51;47.74;102245.59;4981887;28;45513;-70
2022/03/27 04:46:07;;;;;;;;;41.50;32.00;;;;;12.52;48.15;102244.63;4997985;28;46479;-70
2022/03/27 04:48:34;;;;;;;;;32.50;31.00;;;;;12.34;48.27;102232.72;4998911;28;45381;-71
2022/03/27 04:50:59;;;;;;;;;39.50;33.00;;;;;12.42;48.49;102243.69;4999461;28;45479;-71
2022/03/27 04:53:24;;;;;;;;;39.25;33.75;;;;;12.42;47.63;102249.84;4999428;28;45296;-70
2022/03/27 04:55:50;;;;;;;;;36.50;32.25;;;;;12.28;48.00;102228.72;4981349;28;48970;-70
2022/03/27 04:58:16;;;;;;;;;40.25;32.00;;;;;12.29;47.98;102225.09;4999025;28;45476;-70
2022/03/27 05:00:42;;;;;;;;;35.75;32.00;;;;;12.44;47.83;102237.25;4988919;28;45385;-71
2022/03/27 05:03:08;;;;;;;;;37.00;31.75;;;;;12.45;47.70;102244.28;4961955;28;45550;-70
2022/03/27 05:05:33;;;;;;;;;40.75;33.25;;;;;12.34;48.45;102238.91;4979393;28;46122;-69
2022/03/27 05:08:00;;;;;;;;;40.75;34.00;;;;;12.24;48.44;102251.28;4979434;28;45337;-71
2022/03/27 05:10:25;;;;;;;;;39.00;33.67;;;;;12.28;48.63;102252.72;4979436;28;45327;-69
2022/03/27 05:12:51;;;;;;;;;38.67;32.67;;;;;11.78;48.30;102174.81;4979469;28;45350;-70
2022/03/27 05:15:17;;;;;;;;;35.50;32.00;;;;;12.24;48.58;102253.09;4979343;28;45526;-68
2022/03/27 05:17:53;;;;;;;;;37.25;32.25;;;;;12.26;48.69;102264.50;4979218;28;45417;-70
2022/03/27 05:20:18;;;;;;;;;33.00;30.00;;;;;12.22;48.67;102255.03;4979458;28;45502;-71
2022/03/27 05:22:44;;;;;;;;;40.50;34.00;;;;;12.17;48.70;102245.53;4979618;28;45449;-71
2022/03/27 05:25:11;;;;;;;;;47.75;34.25;;;;;12.27;48.96;102272.38;4961401;28;48055;-70
2022/03/27 05:27:48;;;;;;;;;34.75;30.75;;;;;12.01;48.65;102221.03;4961803;28;45832;-70
2022/03/27 05:30:24;;;;;;;;;45.00;35.25;;;;;12.21;48.53;102259.47;4985572;28;45417;-70
2022/03/27 05:32:53;;;;;;;;;42.00;33.50;;;;;12.21;48.84;102261.31;4981758;28;45644;-70
2022/03/27 05:35:20;;;;;;;;;36.50;33.50;;;;;12.10;48.78;102254.13;4998962;28;45503;-71
2022/03/27 05:37:47;;;;;;;;;45.00;33.25;;;;;12.22;48.88;102268.38;4999276;28;45303;-71
2022/03/27 05:40:18;;;;;;;;;40.00;33.25;;;;;12.07;48.75;102252.56;4998977;28;45431;-70
2022/03/27 05:42:44;;;;;;;;;40.50;34.00;;;;;12.01;49.17;102239.69;4999616;28;45231;-71
2022/03/27 05:45:10;;;;;;;;;35.50;30.25;;;;;12.16;49.05;102259.00;4998962;28;45460;-70
2022/03/27 05:47:41;;;;;;;;;37.75;33.00;;;;;12.21;48.89;102266.63;4998269;28;45358;-71
2022/03/27 05:50:08;;;;;;;;;39.75;32.75;;;;;11.63;48.73;102175.97;4998993;28;45504;-70
2022/03/27 05:52:34;;;;;;;;;41.25;33.00;;;;;11.96;49.14;102233.00;4998992;28;45509;-70
2022/03/27 05:54:59;;;;;;;;;35.75;31.00;;;;;11.94;48.69;102226.94;4981632;28;47457;-71
2022/03/27 05:57:25;;;;;;;;;44.00;33.50;;;;;11.83;48.89;102198.47;4981621;28;46351;-70
2022/03/27 05:59:50;;;;;;;;;35.25;32.00;;;;;12.32;48.38;102274.69;4994067;28;45318;-70
2022/03/27 06:02:16;;;;;;;;;33.00;30.00;;;;;12.15;48.50;102249.31;5000012;28;45318;-70
2022/03/27 06:04:42;;;;;;;;;40.25;32.75;;;;;12.01;49.15;102236.16;4980644;28;47418;-71
2022/03/27 06:07:09;;;;;;;;;37.50;33.00;;;;;11.99;48.98;102252.28;4980761;28;45421;-70
2022/03/27 06:09:35;;;;;;;;;35.00;31.25;;;;;12.10;48.59;102264.81;4981006;28;45548;-70
2022/03/27 06:12:04;;;;;;;;;35.50;31.25;;;;;12.20;48.64;102276.44;4998855;28;45575;-72
2022/03/27 06:14:29;;;;;;;;;36.75;32.00;;;;;12.05;48.99;102272.31;4980810;28;45393;-71
2022/03/27 06:16:55;;;;;;;;;47.00;37.00;;;;;12.13;49.32;102276.09;4980400;28;45359;-71
2022/03/27 06:19:21;;;;;;;;;37.00;31.33;;;;;12.24;49.10;102288.59;4998550;28;45467;-70
2022/03/27 06:21:49;;;;;;;;;35.67;30.33;;;;;12.25;49.00;102282.31;4980724;28;45196;-71
2022/03/27 06:24:15;;;;;;;;;39.00;32.75;;;;;12.33;48.76;102282.56;4980354;28;47107;-73
2022/03/27 06:26:41;;;;;;;;;33.00;28.67;;;;;11.83;48.77;102193.97;4996488;28;45439;-72
2022/03/27 06:29:10;;;;;;;;;36.75;29.75;;;;;12.45;48.03;102294.97;4997516;28;45426;-71
2022/03/27 06:31:38;;;;;;;;;36.25;32.00;;;;;12.44;48.47;102293.25;4997737;28;45326;-71
2022/03/27 06:34:04;;;;;;;;;42.25;35.50;;;;;12.45;47.99;102286.97;4979913;28;46777;-71
2022/03/27 06:36:30;;;;;;;;;42.33;32.00;;;;;12.30;48.64;102269.47;4996205;28;46046;-69
2022/03/27 06:38:55;;;;;;;;;31.00;29.00;;;;;12.38;48.61;102295.53;4996109;28;45409;-69
2022/03/27 06:41:20;;;;;;;;;29.50;28.00;;;;;12.39;48.93;102286.56;4997944;28;45570;-69
2022/03/27 06:43:46;;;;;;;;;38.00;33.50;;;;;12.23;48.55;102264.72;4979318;28;48257;-70
2022/03/27 06:46:16;;;;;;;;;38.33;32.67;;;;;12.37;48.11;102284.00;4991090;28;45202;-70
2022/03/27 06:48:42;;;;;;;;;33.00;30.25;;;;;12.52;48.10;102292.66;4978332;28;45256;-70
2022/03/27 06:51:07;;;;;;;;;40.75;34.75;;;;;12.04;48.31;102222.63;4966270;28;45592;-69
2022/03/27 06:57:06;;;;;;;;;45.50;34.50;;;;;12.64;47.92;102294.38;4950588;28;45583;-70
2022/03/27 07:03:01;;;;;;;;;33.00;29.67;;;;;12.56;48.07;102291.44;4993988;28;45636;-69
2022/03/27 07:05:03;;;;;;;;;34.33;30.00;;;;;13.06;46.98;102300.81;4997353;28;45364;-67
2022/03/27 07:07:29;;;;;;;;;39.67;31.67;;;;;13.49;46.26;102288.53;4989437;28;45575;-71
2022/03/27 07:09:55;;;;;;;;;36.67;32.67;;;;;14.03;44.69;102293.81;4979013;28;45314;-70
2022/03/27 07:12:35;;;;;;;;;44.67;33.67;;;;;14.52;43.15;102284.31;4991320;28;45544;-72
2022/03/27 07:15:03;;;;;;;;;34.67;30.33;;;;;14.93;42.47;102293.25;4991069;28;45243;-71
2022/03/27 07:17:30;;;;;;;;;46.25;37.75;;;;;15.05;41.94;102293.03;4979542;28;45609;-71
2022/03/27 07:19:55;;;;;;;;;43.67;35.33;;;;;15.20;41.07;102282.78;4996750;28;45574;-73
2022/03/27 07:22:22;;;;;;;;;40.00;33.33;;;;;15.52;41.21;102286.09;4992144;28;45752;-70
2022/03/27 07:24:47;;;;;;;;;42.67;35.00;;;;;15.72;40.48;102296.88;4977712;28;46397;-69
2022/03/27 07:27:13;;;;;;;;;31.00;29.67;;;;;15.72;39.88;102267.38;4979622;28;45875;-71
2022/03/27 07:29:38;;;;;;;;;36.00;33.67;;;;;15.97;39.50;102290.94;4985618;28;45231;-72
2022/03/27 07:32:08;;;;;;;;;26.33;21.33;;;;;15.61;39.47;102213.88;4970999;28;45547;-72
2022/03/27 07:34:35;;;;;;;;;30.67;26.33;;;;;16.48;39.04;102302.34;4970717;28;47753;-70
2022/03/27 07:37:02;;;;;;;;;30.67;30.67;;;;;15.48;38.27;102080.13;4960997;28;45572;-71
2022/03/27 07:39:28;;;;;;;;;38.67;32.67;;;;;16.94;38.43;102298.84;4964426;28;45505;-70
2022/03/27 07:41:53;;;;;;;;;33.00;26.67;;;;;17.17;37.61;102292.06;4980190;28;45382;-70
2022/03/27 07:44:19;;;;;;;;;38.00;32.67;;;;;17.45;36.61;102305.53;4985395;28;45731;-72
2022/03/27 07:46:44;;;;;;;;;33.00;29.33;;;;;17.42;36.51;102300.41;4976001;28;45802;-71
2022/03/27 07:49:10;;;;;;;;;35.00;31.00;;;;;17.61;36.22;102311.06;4969094;28;45505;-72
2022/03/27 07:51:35;;;;;;;;;30.33;28.00;;;;;17.73;36.15;102309.03;4970388;28;45607;-73
2022/03/27 07:54:01;;;;;;;;;40.00;34.67;;;;;17.74;35.98;102295.44;4991092;28;46665;-71
2022/03/27 07:56:27;;;;;;;;;35.00;31.67;;;;;17.93;35.75;102306.03;4974133;28;46178;-72
2022/03/27 07:58:53;;;;;;;;;40.33;34.00;;;;;17.94;34.95;102299.66;4996172;28;45937;-70
2022/03/27 08:05:22;;;;;;;;;35.33;29.00;;;;;18.54;34.34;102299.78;4899308;28;45305;-70
2022/03/27 08:07:47;;;;;;;;;40.33;35.00;;;;;18.66;34.05;102300.41;4909989;28;45261;-71
2022/03/27 08:10:15;;;;;;;;;37.33;32.67;;;;;18.94;33.83;102313.69;4965230;28;45521;-71
2022/03/27 08:12:41;;;;;;;;;38.00;32.67;;;;;18.80;33.37;102277.41;4967355;28;45713;-73
2022/03/27 08:15:06;;;;;;;;;30.67;29.00;;;;;19.01;33.56;102310.19;4972322;28;47165;-73
2022/03/27 08:17:32;;;;;;;;;28.67;25.00;;;;;19.09;33.25;102267.13;4995478;28;45360;-70
2022/03/27 08:19:58;;;;;;;;;38.00;32.67;;;;;19.58;32.16;102304.19;4995579;28;45586;-71
2022/03/27 08:22:24;;;;;;;;;35.00;29.00;;;;;19.68;32.02;102280.63;4979064;28;45536;-73
2022/03/27 08:24:50;;;;;;;;;28.33;28.00;;;;;19.56;31.92;102231.53;4997968;28;45756;-71
2022/03/27 08:27:15;;;;;;;;;42.00;33.00;;;;;20.23;31.54;102312.38;4965032;28;46408;-71
2022/03/27 08:29:42;;;;;;;;;31.33;29.00;;;;;20.08;31.21;102233.91;4998733;28;45409;-74
2022/03/27 08:32:12;;;;;;;;;34.33;31.33;;;;;20.59;30.34;102304.75;4995324;28;45476;-72
2022/03/27 08:34:39;;;;;;;;;32.33;29.00;;;;;20.56;30.44;102254.59;4971172;28;47688;-71
2022/03/27 08:37:08;;;;;;;;;28.33;27.00;;;;;21.16;30.06;102307.28;4988187;28;45586;-70
2022/03/27 08:39:34;;;;;;;;;28.67;27.00;;;;;21.42;29.68;102302.44;4977744;28;45430;-71
2022/03/27 08:41:59;;;;;;;;;35.67;28.00;;;;;21.25;29.17;102290.91;4998419;28;45559;-69
2022/03/27 08:44:26;;;;;;;;;33.67;29.00;;;;;20.88;29.00;102299.63;4981559;28;48444;-70
2022/03/27 08:46:53;;;;;;;;;32.67;29.00;;;;;20.71;29.70;102303.38;4998893;28;45616;-71
2022/03/27 08:49:52;;;;;;;;;33.67;28.00;;;;;20.89;29.22;102312.13;4999112;28;45268;-72
2022/03/27 08:52:18;;;;;;;;;24.33;19.67;;;;;21.14;29.29;102306.63;5002771;28;46729;-71
2022/03/27 08:55:05;;;;;;;;;31.00;27.33;;;;;21.57;28.44;102291.72;4997839;28;45459;-71
2022/03/27 08:58:00;;;;;;;;;31.00;30.33;;;;;21.93;28.43;102304.66;4987347;28;45525;-70
2022/03/27 09:00:29;;;;;;;;;32.00;31.00;;;;;22.12;27.45;102302.34;5000780;28;45607;-71
2022/03/27 09:02:56;;;;;;;;;29.33;27.67;;;;;22.14;26.75;102308.41;4994985;28;45199;-71
2022/03/27 09:05:23;;;;;;;;;35.00;32.33;;;;;22.20;27.23;102311.41;4989066;28;46719;-72
2022/03/27 09:07:49;;;;;;;;;30.00;29.67;;;;;22.64;26.64;102309.66;4975426;28;45492;-71
2022/03/27 09:10:16;;;;;;;;;37.33;32.67;;;;;22.62;26.39;102264.75;4972412;28;45537;-72
2022/03/27 09:12:44;;;;;;;;;30.33;29.67;;;;;23.21;25.96;102317.13;4975804;28;45335;-70
2022/03/27 09:15:11;;;;;;;;;28.00;26.67;;;;;23.03;25.89;102314.00;4980203;28;47719;-72
2022/03/27 09:18:02;;;;;;;;;31.00;27.00;;;;;22.39;26.35;102262.97;4997397;28;45516;-72
2022/03/27 09:20:48;;;;;;;;;35.67;32.33;;;;;23.20;25.90;102307.31;4977283;28;45513;-71
2022/03/27 09:23:22;;;;;;;;;38.00;28.67;;;;;23.79;24.74;102301.75;4972366;28;45468;-70
2022/03/27 09:25:57;;;;;;;;;36.33;33.00;;;;;23.93;24.71;102313.59;4979414;28;48821;-72
2022/03/27 09:28:46;;;;;;;;;32.67;28.33;;;;;24.28;24.12;102317.28;4975366;28;45481;-72
2022/03/27 09:31:29;;;;;;;;;31.00;26.00;;;;;25.06;23.37;102312.63;4994947;28;45412;-70
2022/03/27 09:33:55;;;;;;;;;39.33;32.33;;;;;25.85;22.05;102310.19;4976802;28;45471;-71
2022/03/27 09:36:35;;;;;;;;;29.33;26.33;;;;;26.36;22.10;102302.28;4989963;28;45701;-73
2022/03/27 09:39:08;;;;;;;;;26.00;22.00;;;;;26.98;20.67;102292.69;4977287;28;45452;-73
2022/03/27 09:41:41;;;;;;;;;29.33;26.00;;;;;27.68;19.88;102292.00;4979834;28;45552;-70
2022/03/27 09:44:16;;;;;;;;;28.67;27.00;;;;;27.79;20.07;102310.41;4978331;28;45251;-74
2022/03/27 09:47:00;;;;;;;;;31.33;28.67;;;;;28.52;19.42;102302.50;4997057;28;45241;-75
2022/03/27 09:49:32;;;;;;;;;29.67;28.33;;;;;28.84;18.89;102296.91;4971254;28;45341;-71
2022/03/27 09:52:08;;;;;;;;;31.67;29.67;;;;;28.76;19.24;102274.22;4982796;28;45277;-76
2022/03/27 09:54:57;;;;;;;;;33.00;29.00;;;;;28.95;19.03;102302.47;4990091;28;45267;-72
2022/03/27 09:57:36;;;;;;;;;33.67;31.33;;;;;29.38;18.72;102294.13;4986418;28;46536;-72
2022/03/27 10:00:07;;;;;;;;;26.33;23.00;;;;;29.30;18.77;102291.72;4967805;28;45744;-74
2022/03/27 10:02:33;;;;;;;;;32.67;29.67;;;;;27.99;19.97;102300.19;4996018;28;45483;-71
2022/03/27 10:05:01;;;;;;;;;28.67;28.00;;;;;27.70;20.28;102273.50;4967797;28;45618;-72
2022/03/27 10:07:36;;;;;;;;;29.00;26.33;;;;;27.32;20.55;102287.13;4995588;28;46348;-74
2022/03/27 10:10:06;;;;;;;;;31.33;27.67;;;;;26.07;21.80;102289.06;4982058;28;46205;-71
2022/03/27 10:12:34;;;;;;;;;35.00;30.67;;;;;25.24;22.70;102288.44;4989219;28;45275;-73
2022/03/27 10:15:03;;;;;;;;;28.00;25.33;;;;;24.42;23.72;102270.13;4979280;28;45533;-70
2022/03/27 10:17:32;;;;;;;;;30.67;28.00;;;;;24.04;24.44;102294.09;4962886;28;47695;-71
2022/03/27 10:20:08;;;;;;;;;34.67;31.33;;;;;23.42;25.26;102291.91;4972101;28;46022;-70
2022/03/27 10:22:39;;;;;;;;;28.00;26.33;;;;;22.64;26.36;102277.13;4989269;28;45246;-72
2022/03/27 10:25:07;;;;;;;;;30.33;26.00;;;;;22.40;26.88;102282.78;4975501;28;45248;-70
2022/03/27 10:27:34;;;;;;;;;34.00;30.00;;;;;22.14;26.87;102266.94;4971773;28;46625;-71
2022/03/27 10:30:00;;;;;;;;;35.67;31.33;;;;;21.91;27.32;102269.66;4971920;28;45660;-70
2022/03/27 10:32:28;;;;;;;;;34.00;28.33;;;;;21.52;27.99;102265.19;4982226;28;45304;-75
2022/03/27 10:35:02;;;;;;;;;37.67;31.67;;;;;21.49;28.50;102256.59;4979093;28;45593;-72
2022/03/27 10:38:05;;;;;;;;;26.67;25.67;;;;;21.51;29.95;102278.91;4979464;28;48129;-70
2022/03/27 10:40:58;;;;;;;;;29.33;26.00;;;;;20.95;29.28;102276.28;4989771;28;45353;-71
2022/03/27 10:44:03;;;;;;;;;33.67;25.67;;;;;20.47;30.06;102274.56;4979200;28;45566;-70
2022/03/27 10:46:31;;;;;;;;;39.33;33.33;;;;;19.78;30.54;102180.59;4982518;28;45361;-71
2022/03/27 10:49:14;;;;;;;;;40.67;33.67;;;;;20.30;30.39;102265.59;4978685;28;47273;-71
2022/03/27 10:51:48;;;;;;;;;38.67;33.33;;;;;20.05;30.78;102251.28;4997139;28;45484;-75
2022/03/27 10:54:18;;;;;;;;;30.67;28.00;;;;;19.91;30.90;102232.22;4978495;28;45591;-72
2022/03/27 10:56:50;;;;;;;;;39.00;33.00;;;;;19.67;31.47;102228.50;4988751;28;45365;-73
2022/03/27 10:59:25;;;;;;;;;37.00;34.67;;;;;19.53;31.87;102261.50;4983793;28;47728;-70
2022/03/27 11:01:59;;;;;;;;;37.33;33.33;;;;;19.42;31.84;102259.97;4998720;28;45501;-72
2022/03/27 11:04:38;;;;;;;;;29.00;26.00;;;;;19.02;31.71;102173.56;4989600;28;45558;-72
2022/03/27 11:07:16;;;;;;;;;40.00;29.00;;;;;19.03;32.03;102170.75;4996475;28;45488;-72
2022/03/27 11:09:45;;;;;;;;;40.33;34.00;;;;;19.38;32.06;102222.69;4970687;28;48074;-71
2022/03/27 11:12:22;;;;;;;;;30.33;28.33;;;;;19.43;31.92;102236.53;4992297;28;45400;-72
2022/03/27 11:14:59;;;;;;;;;41.00;35.00;;;;;19.32;31.86;102239.53;4996335;28;45526;-71
2022/03/27 11:17:35;;;;;;;;;35.67;31.33;;;;;19.31;31.78;102238.69;4991414;28;45184;-70
2022/03/27 11:20:02;;;;;;;;;29.00;28.00;;;;;19.44;31.12;102240.94;4992027;28;45631;-68
2022/03/27 11:22:51;;;;;;;;;34.67;30.67;;;;;19.25;31.30;102233.97;4996323;28;45629;-70
2022/03/27 11:25:23;;;;;;;;;37.33;31.67;;;;;19.23;31.58;102235.16;4986976;28;45468;-71
2022/03/27 11:27:57;;;;;;;;;43.00;31.33;;;;;18.98;31.51;102200.00;4992349;28;45492;-71